sensor_id;sensor_type;location;lat;lon;timestamp;P1;durP1;ratioP1;P2;durP2;ratioP2
62572;SDS011;48626;51.678;5.806;2022-11-20T00:00:01;21.33;;;12.88;;
62572;SDS011;48626;51.678;5.806;2022-11-20T00:02:27;25.10;;;12.63;;
62572;SDS011;48626;51.678;5.806;2022-11-20T00:04:53;21.48;;;12.45;;
62572;SDS011;48626;51.678;5.806;2022-11-20T00:07:18;19.83;;;11.18;;
62572;SDS011;48626;51.678;5.806;2022-11-20T00:09:44;19.83;;;11.23;;
62572;SDS011;48626;51.678;5.806;2022-11-20T00:12:09;19.23;;;10.85;;
62572;SDS011;48626;51.678;5.806;2022-11-20T00:14:35;18.33;;;11.00;;
62572;SDS011;48626;51.678;5.806;2022-11-20T00:17:01;20.65;;;11.32;;
62572;SDS011;48626;51.678;5.806;2022-11-20T00:19:26;20.13;;;11.88;;
62572;SDS011;48626;51.678;5.806;2022-11-20T00:21:52;30.48;;;17.13;;
62572;SDS011;48626;51.678;5.806;2022-11-20T00:24:18;22.95;;;13.15;;
62572;SDS011;48626;51.678;5.806;2022-11-20T00:26:44;20.73;;;10.88;;
62572;SDS011;48626;51.678;5.806;2022-11-20T00:29:10;19.75;;;10.82;;
62572;SDS011;48626;51.678;5.806;2022-11-20T00:31:36;20.50;;;10.70;;
62572;SDS011;48626;51.678;5.806;2022-11-20T00:34:01;20.63;;;10.95;;
62572;SDS011;48626;51.678;5.806;2022-11-20T00:36:27;21.98;;;11.10;;
62572;SDS011;48626;51.678;5.806;2022-11-20T00:38:55;19.23;;;10.95;;
62572;SDS011;48626;51.678;5.806;2022-11-20T00:41:21;20.23;;;10.57;;
62572;SDS011;48626;51.678;5.806;2022-11-20T00:43:47;17.40;;;10.65;;
62572;SDS011;48626;51.678;5.806;2022-11-20T00:46:17;19.50;;;10.23;;
62572;SDS011;48626;51.678;5.806;2022-11-20T00:48:44;20.42;;;10.98;;
62572;SDS011;48626;51.678;5.806;2022-11-20T00:51:11;20.35;;;11.07;;
62572;SDS011;48626;51.678;5.806;2022-11-20T00:56:07;20.60;;;11.18;;
62572;SDS011;48626;51.678;5.806;2022-11-20T00:58:39;20.38;;;11.18;;
62572;SDS011;48626;51.678;5.806;2022-11-20T01:01:06;20.63;;;11.40;;
62572;SDS011;48626;51.678;5.806;2022-11-20T01:03:36;21.63;;;11.70;;
62572;SDS011;48626;51.678;5.806;2022-11-20T01:06:04;20.90;;;11.82;;
62572;SDS011;48626;51.678;5.806;2022-11-20T01:08:32;22.40;;;12.20;;
62572;SDS011;48626;51.678;5.806;2022-11-20T01:11:00;20.92;;;11.43;;
62572;SDS011;48626;51.678;5.806;2022-11-20T01:13:27;22.60;;;12.90;;
62572;SDS011;48626;51.678;5.806;2022-11-20T01:16:06;19.63;;;12.27;;
62572;SDS011;48626;51.678;5.806;2022-11-20T01:18:34;21.58;;;12.40;;
62572;SDS011;48626;51.678;5.806;2022-11-20T01:21:01;23.00;;;12.30;;
62572;SDS011;48626;51.678;5.806;2022-11-20T01:23:35;20.95;;;11.70;;
62572;SDS011;48626;51.678;5.806;2022-11-20T01:26:03;23.80;;;12.77;;
62572;SDS011;48626;51.678;5.806;2022-11-20T01:28:30;25.95;;;12.07;;
62572;SDS011;48626;51.678;5.806;2022-11-20T01:30:57;20.95;;;12.18;;
62572;SDS011;48626;51.678;5.806;2022-11-20T01:33:23;19.42;;;10.90;;
62572;SDS011;48626;51.678;5.806;2022-11-20T01:35:49;18.73;;;11.35;;
62572;SDS011;48626;51.678;5.806;2022-11-20T01:38:15;21.90;;;11.57;;
62572;SDS011;48626;51.678;5.806;2022-11-20T01:40:41;19.52;;;11.38;;
62572;SDS011;48626;51.678;5.806;2022-11-20T01:43:14;18.40;;;10.32;;
62572;SDS011;48626;51.678;5.806;2022-11-20T01:51:58;22.08;;;12.55;;
62572;SDS011;48626;51.678;5.806;2022-11-20T01:54:15;21.70;;;12.00;;
62572;SDS011;48626;51.678;5.806;2022-11-20T01:56:44;20.05;;;11.65;;
62572;SDS011;48626;51.678;5.806;2022-11-20T01:59:13;21.05;;;10.95;;
62572;SDS011;48626;51.678;5.806;2022-11-20T02:01:40;20.90;;;11.18;;
62572;SDS011;48626;51.678;5.806;2022-11-20T02:04:06;19.40;;;11.15;;
62572;SDS011;48626;51.678;5.806;2022-11-20T02:09:22;21.48;;;11.10;;
62572;SDS011;48626;51.678;5.806;2022-11-20T02:11:47;21.80;;;11.63;;
62572;SDS011;48626;51.678;5.806;2022-11-20T02:14:13;18.60;;;10.93;;
62572;SDS011;48626;51.678;5.806;2022-11-20T02:16:40;23.05;;;10.80;;
62572;SDS011;48626;51.678;5.806;2022-11-20T02:19:17;23.40;;;11.60;;
62572;SDS011;48626;51.678;5.806;2022-11-20T02:22:02;20.23;;;10.68;;
62572;SDS011;48626;51.678;5.806;2022-11-20T02:24:31;20.40;;;11.30;;
62572;SDS011;48626;51.678;5.806;2022-11-20T02:26:59;21.27;;;11.90;;
62572;SDS011;48626;51.678;5.806;2022-11-20T02:29:49;15.90;;;10.25;;
62572;SDS011;48626;51.678;5.806;2022-11-20T02:32:19;21.95;;;11.93;;
62572;SDS011;48626;51.678;5.806;2022-11-20T02:34:46;19.10;;;11.07;;
62572;SDS011;48626;51.678;5.806;2022-11-20T02:37:12;18.17;;;11.15;;
62572;SDS011;48626;51.678;5.806;2022-11-20T02:39:38;19.58;;;10.90;;
62572;SDS011;48626;51.678;5.806;2022-11-20T02:42:05;21.55;;;11.52;;
62572;SDS011;48626;51.678;5.806;2022-11-20T02:44:31;20.92;;;11.82;;
62572;SDS011;48626;51.678;5.806;2022-11-20T02:46:57;22.52;;;10.85;;
62572;SDS011;48626;51.678;5.806;2022-11-20T02:49:23;18.38;;;10.85;;
62572;SDS011;48626;51.678;5.806;2022-11-20T02:51:49;21.42;;;11.90;;
62572;SDS011;48626;51.678;5.806;2022-11-20T02:54:15;19.88;;;11.32;;
62572;SDS011;48626;51.678;5.806;2022-11-20T02:56:40;18.88;;;11.25;;
62572;SDS011;48626;51.678;5.806;2022-11-20T02:59:06;19.45;;;11.02;;
62572;SDS011;48626;51.678;5.806;2022-11-20T03:01:32;18.83;;;10.73;;
62572;SDS011;48626;51.678;5.806;2022-11-20T03:03:58;27.45;;;11.82;;
62572;SDS011;48626;51.678;5.806;2022-11-20T03:06:23;20.50;;;10.90;;
62572;SDS011;48626;51.678;5.806;2022-11-20T03:08:49;23.60;;;12.07;;
62572;SDS011;48626;51.678;5.806;2022-11-20T03:11:15;18.17;;;11.00;;
62572;SDS011;48626;51.678;5.806;2022-11-20T03:13:41;19.25;;;10.23;;
62572;SDS011;48626;51.678;5.806;2022-11-20T03:16:08;25.98;;;11.95;;
62572;SDS011;48626;51.678;5.806;2022-11-20T03:18:36;22.17;;;11.38;;
62572;SDS011;48626;51.678;5.806;2022-11-20T03:21:02;22.23;;;11.57;;
62572;SDS011;48626;51.678;5.806;2022-11-20T03:23:29;20.98;;;11.02;;
62572;SDS011;48626;51.678;5.806;2022-11-20T03:25:56;26.80;;;11.55;;
62572;SDS011;48626;51.678;5.806;2022-11-20T03:28:39;23.13;;;11.43;;
62572;SDS011;48626;51.678;5.806;2022-11-20T03:31:14;19.15;;;11.10;;
62572;SDS011;48626;51.678;5.806;2022-11-20T03:33:41;20.40;;;11.27;;
62572;SDS011;48626;51.678;5.806;2022-11-20T03:36:09;19.08;;;11.52;;
62572;SDS011;48626;51.678;5.806;2022-11-20T03:38:36;21.35;;;11.35;;
62572;SDS011;48626;51.678;5.806;2022-11-20T03:41:03;20.42;;;11.35;;
62572;SDS011;48626;51.678;5.806;2022-11-20T03:43:31;21.15;;;12.20;;
62572;SDS011;48626;51.678;5.806;2022-11-20T03:45:57;18.67;;;10.82;;
62572;SDS011;48626;51.678;5.806;2022-11-20T03:48:23;21.95;;;11.35;;
62572;SDS011;48626;51.678;5.806;2022-11-20T03:50:49;22.88;;;12.07;;
62572;SDS011;48626;51.678;5.806;2022-11-20T03:53:15;22.67;;;11.40;;
62572;SDS011;48626;51.678;5.806;2022-11-20T03:55:41;22.63;;;12.35;;
62572;SDS011;48626;51.678;5.806;2022-11-20T03:58:07;20.05;;;11.13;;
62572;SDS011;48626;51.678;5.806;2022-11-20T04:00:33;20.92;;;11.25;;
62572;SDS011;48626;51.678;5.806;2022-11-20T04:02:59;19.30;;;11.23;;
62572;SDS011;48626;51.678;5.806;2022-11-20T04:05:27;18.25;;;10.32;;
62572;SDS011;48626;51.678;5.806;2022-11-20T04:07:53;20.20;;;11.02;;
62572;SDS011;48626;51.678;5.806;2022-11-20T04:10:19;21.42;;;11.38;;
62572;SDS011;48626;51.678;5.806;2022-11-20T04:12:45;19.90;;;10.82;;
62572;SDS011;48626;51.678;5.806;2022-11-20T04:15:10;19.15;;;10.63;;
62572;SDS011;48626;51.678;5.806;2022-11-20T04:17:36;19.83;;;10.70;;
62572;SDS011;48626;51.678;5.806;2022-11-20T04:20:01;20.30;;;10.93;;
62572;SDS011;48626;51.678;5.806;2022-11-20T04:22:27;23.35;;;10.73;;
62572;SDS011;48626;51.678;5.806;2022-11-20T04:24:53;17.48;;;10.50;;
62572;SDS011;48626;51.678;5.806;2022-11-20T04:27:20;21.17;;;10.90;;
62572;SDS011;48626;51.678;5.806;2022-11-20T04:29:45;21.05;;;11.20;;
62572;SDS011;48626;51.678;5.806;2022-11-20T04:32:11;18.52;;;10.50;;
62572;SDS011;48626;51.678;5.806;2022-11-20T04:34:37;20.20;;;11.38;;
62572;SDS011;48626;51.678;5.806;2022-11-20T04:37:02;22.35;;;11.77;;
62572;SDS011;48626;51.678;5.806;2022-11-20T04:39:28;21.73;;;11.75;;
62572;SDS011;48626;51.678;5.806;2022-11-20T04:41:53;19.00;;;10.82;;
62572;SDS011;48626;51.678;5.806;2022-11-20T04:44:39;26.40;;;12.05;;
62572;SDS011;48626;51.678;5.806;2022-11-20T04:47:04;19.45;;;11.18;;
62572;SDS011;48626;51.678;5.806;2022-11-20T04:49:30;22.70;;;11.57;;
62572;SDS011;48626;51.678;5.806;2022-11-20T04:51:56;22.77;;;11.68;;
62572;SDS011;48626;51.678;5.806;2022-11-20T04:54:22;19.95;;;11.02;;
62572;SDS011;48626;51.678;5.806;2022-11-20T04:56:48;20.30;;;10.75;;
62572;SDS011;48626;51.678;5.806;2022-11-20T04:59:14;20.13;;;11.30;;
62572;SDS011;48626;51.678;5.806;2022-11-20T05:01:40;21.52;;;11.65;;
62572;SDS011;48626;51.678;5.806;2022-11-20T05:04:06;21.63;;;11.48;;
62572;SDS011;48626;51.678;5.806;2022-11-20T05:06:32;21.90;;;11.68;;
62572;SDS011;48626;51.678;5.806;2022-11-20T05:08:58;21.08;;;11.73;;
62572;SDS011;48626;51.678;5.806;2022-11-20T05:11:24;23.60;;;12.00;;
62572;SDS011;48626;51.678;5.806;2022-11-20T05:13:50;23.40;;;11.93;;
62572;SDS011;48626;51.678;5.806;2022-11-20T05:16:22;21.40;;;11.75;;
62572;SDS011;48626;51.678;5.806;2022-11-20T05:18:49;21.23;;;11.93;;
62572;SDS011;48626;51.678;5.806;2022-11-20T05:21:15;22.98;;;11.85;;
62572;SDS011;48626;51.678;5.806;2022-11-20T05:23:42;20.75;;;10.57;;
62572;SDS011;48626;51.678;5.806;2022-11-20T05:26:12;22.52;;;11.38;;
62572;SDS011;48626;51.678;5.806;2022-11-20T05:28:42;23.42;;;12.02;;
62572;SDS011;48626;51.678;5.806;2022-11-20T05:31:09;23.33;;;11.75;;
62572;SDS011;48626;51.678;5.806;2022-11-20T05:33:36;21.33;;;12.35;;
62572;SDS011;48626;51.678;5.806;2022-11-20T05:36:04;21.02;;;11.55;;
62572;SDS011;48626;51.678;5.806;2022-11-20T05:38:30;18.40;;;10.85;;
62572;SDS011;48626;51.678;5.806;2022-11-20T05:41:02;21.30;;;11.70;;
62572;SDS011;48626;51.678;5.806;2022-11-20T05:43:48;23.30;;;11.65;;
62572;SDS011;48626;51.678;5.806;2022-11-20T05:46:15;26.50;;;12.43;;
62572;SDS011;48626;51.678;5.806;2022-11-20T05:48:43;23.10;;;11.63;;
62572;SDS011;48626;51.678;5.806;2022-11-20T05:51:10;20.30;;;11.23;;
62572;SDS011;48626;51.678;5.806;2022-11-20T05:53:37;21.73;;;11.75;;
62572;SDS011;48626;51.678;5.806;2022-11-20T05:56:09;22.85;;;11.05;;
62572;SDS011;48626;51.678;5.806;2022-11-20T05:58:37;19.52;;;10.77;;
62572;SDS011;48626;51.678;5.806;2022-11-20T06:01:04;22.15;;;12.30;;
62572;SDS011;48626;51.678;5.806;2022-11-20T06:03:38;22.00;;;11.40;;
62572;SDS011;48626;51.678;5.806;2022-11-20T06:06:04;19.33;;;10.95;;
62572;SDS011;48626;51.678;5.806;2022-11-20T06:08:31;22.63;;;11.95;;
62572;SDS011;48626;51.678;5.806;2022-11-20T06:10:57;21.67;;;12.07;;
62572;SDS011;48626;51.678;5.806;2022-11-20T06:13:23;22.33;;;11.50;;
62572;SDS011;48626;51.678;5.806;2022-11-20T06:15:49;23.02;;;11.40;;
62572;SDS011;48626;51.678;5.806;2022-11-20T06:18:16;21.05;;;11.52;;
62572;SDS011;48626;51.678;5.806;2022-11-20T06:20:41;22.25;;;12.52;;
62572;SDS011;48626;51.678;5.806;2022-11-20T06:23:07;21.80;;;11.80;;
62572;SDS011;48626;51.678;5.806;2022-11-20T06:25:32;23.92;;;12.48;;
62572;SDS011;48626;51.678;5.806;2022-11-20T06:28:01;21.02;;;11.30;;
62572;SDS011;48626;51.678;5.806;2022-11-20T06:30:27;22.98;;;12.23;;
62572;SDS011;48626;51.678;5.806;2022-11-20T06:32:53;21.20;;;11.35;;
62572;SDS011;48626;51.678;5.806;2022-11-20T06:35:18;21.80;;;12.10;;
62572;SDS011;48626;51.678;5.806;2022-11-20T06:37:44;22.55;;;12.15;;
62572;SDS011;48626;51.678;5.806;2022-11-20T06:40:10;22.35;;;11.68;;
62572;SDS011;48626;51.678;5.806;2022-11-20T06:42:36;21.88;;;11.35;;
62572;SDS011;48626;51.678;5.806;2022-11-20T06:45:01;21.35;;;10.80;;
62572;SDS011;48626;51.678;5.806;2022-11-20T06:47:27;22.25;;;11.80;;
62572;SDS011;48626;51.678;5.806;2022-11-20T06:49:52;22.42;;;12.13;;
62572;SDS011;48626;51.678;5.806;2022-11-20T06:52:18;21.63;;;11.77;;
62572;SDS011;48626;51.678;5.806;2022-11-20T06:54:44;22.20;;;11.43;;
62572;SDS011;48626;51.678;5.806;2022-11-20T06:57:09;23.52;;;11.93;;
62572;SDS011;48626;51.678;5.806;2022-11-20T06:59:35;20.35;;;11.93;;
62572;SDS011;48626;51.678;5.806;2022-11-20T07:02:01;22.40;;;12.52;;
62572;SDS011;48626;51.678;5.806;2022-11-20T07:04:27;22.88;;;11.68;;
62572;SDS011;48626;51.678;5.806;2022-11-20T07:06:52;21.77;;;12.48;;
62572;SDS011;48626;51.678;5.806;2022-11-20T07:09:18;21.23;;;11.20;;
62572;SDS011;48626;51.678;5.806;2022-11-20T07:11:43;21.25;;;11.82;;
62572;SDS011;48626;51.678;5.806;2022-11-20T07:14:09;22.33;;;11.90;;
62572;SDS011;48626;51.678;5.806;2022-11-20T07:16:35;22.45;;;11.55;;
62572;SDS011;48626;51.678;5.806;2022-11-20T07:19:01;21.25;;;12.38;;
62572;SDS011;48626;51.678;5.806;2022-11-20T07:21:26;26.48;;;12.75;;
62572;SDS011;48626;51.678;5.806;2022-11-20T07:23:52;24.73;;;12.63;;
62572;SDS011;48626;51.678;5.806;2022-11-20T07:26:17;22.00;;;12.15;;
62572;SDS011;48626;51.678;5.806;2022-11-20T07:28:44;23.85;;;11.48;;
62572;SDS011;48626;51.678;5.806;2022-11-20T07:31:10;22.27;;;11.93;;
62572;SDS011;48626;51.678;5.806;2022-11-20T07:33:37;33.50;;;12.45;;
62572;SDS011;48626;51.678;5.806;2022-11-20T07:36:03;23.13;;;12.48;;
62572;SDS011;48626;51.678;5.806;2022-11-20T07:38:29;28.08;;;12.48;;
62572;SDS011;48626;51.678;5.806;2022-11-20T07:40:56;23.02;;;12.32;;
62572;SDS011;48626;51.678;5.806;2022-11-20T07:43:22;27.58;;;12.27;;
62572;SDS011;48626;51.678;5.806;2022-11-20T07:45:48;22.55;;;12.57;;
62572;SDS011;48626;51.678;5.806;2022-11-20T07:48:14;22.02;;;13.23;;
62572;SDS011;48626;51.678;5.806;2022-11-20T07:50:40;23.33;;;13.32;;
62572;SDS011;48626;51.678;5.806;2022-11-20T07:53:05;31.48;;;15.00;;
62572;SDS011;48626;51.678;5.806;2022-11-20T07:55:31;29.67;;;15.43;;
62572;SDS011;48626;51.678;5.806;2022-11-20T07:57:57;27.13;;;15.52;;
62572;SDS011;48626;51.678;5.806;2022-11-20T08:00:23;33.33;;;15.07;;
62572;SDS011;48626;51.678;5.806;2022-11-20T08:02:50;25.08;;;14.13;;
62572;SDS011;48626;51.678;5.806;2022-11-20T08:05:16;23.40;;;13.20;;
62572;SDS011;48626;51.678;5.806;2022-11-20T08:07:42;23.80;;;13.70;;
62572;SDS011;48626;51.678;5.806;2022-11-20T08:10:09;25.30;;;13.57;;
62572;SDS011;48626;51.678;5.806;2022-11-20T08:12:42;22.80;;;13.60;;
62572;SDS011;48626;51.678;5.806;2022-11-20T08:15:28;32.67;;;15.25;;
62572;SDS011;48626;51.678;5.806;2022-11-20T08:18:01;27.50;;;14.80;;
62572;SDS011;48626;51.678;5.806;2022-11-20T08:20:28;27.58;;;14.70;;
62572;SDS011;48626;51.678;5.806;2022-11-20T08:22:57;25.80;;;14.70;;
62572;SDS011;48626;51.678;5.806;2022-11-20T08:25:24;24.08;;;13.18;;
62572;SDS011;48626;51.678;5.806;2022-11-20T08:27:50;22.83;;;13.63;;
62572;SDS011;48626;51.678;5.806;2022-11-20T08:30:16;24.27;;;13.30;;
62572;SDS011;48626;51.678;5.806;2022-11-20T08:32:42;27.42;;;13.82;;
62572;SDS011;48626;51.678;5.806;2022-11-20T08:35:08;26.48;;;14.10;;
62572;SDS011;48626;51.678;5.806;2022-11-20T08:37:33;22.75;;;13.50;;
62572;SDS011;48626;51.678;5.806;2022-11-20T08:39:59;28.65;;;14.98;;
62572;SDS011;48626;51.678;5.806;2022-11-20T08:42:25;27.48;;;14.05;;
62572;SDS011;48626;51.678;5.806;2022-11-20T08:44:50;23.77;;;13.68;;
62572;SDS011;48626;51.678;5.806;2022-11-20T08:47:16;31.98;;;14.88;;
62572;SDS011;48626;51.678;5.806;2022-11-20T08:49:41;31.98;;;16.00;;
62572;SDS011;48626;51.678;5.806;2022-11-20T08:52:07;35.17;;;16.35;;
62572;SDS011;48626;51.678;5.806;2022-11-20T08:54:33;77.03;;;21.85;;
62572;SDS011;48626;51.678;5.806;2022-11-20T08:56:58;61.33;;;21.40;;
62572;SDS011;48626;51.678;5.806;2022-11-20T08:59:24;56.30;;;20.35;;
62572;SDS011;48626;51.678;5.806;2022-11-20T09:01:49;28.75;;;15.30;;
62572;SDS011;48626;51.678;5.806;2022-11-20T09:04:15;38.38;;;17.52;;
62572;SDS011;48626;51.678;5.806;2022-11-20T09:06:41;40.50;;;17.08;;
62572;SDS011;48626;51.678;5.806;2022-11-20T09:09:06;28.75;;;15.02;;
62572;SDS011;48626;51.678;5.806;2022-11-20T09:11:32;27.45;;;15.35;;
62572;SDS011;48626;51.678;5.806;2022-11-20T09:13:59;30.73;;;15.20;;
62572;SDS011;48626;51.678;5.806;2022-11-20T09:16:25;31.15;;;15.57;;
62572;SDS011;48626;51.678;5.806;2022-11-20T09:18:50;28.88;;;15.93;;
62572;SDS011;48626;51.678;5.806;2022-11-20T09:21:16;30.98;;;16.08;;
62572;SDS011;48626;51.678;5.806;2022-11-20T09:23:42;27.45;;;15.00;;
62572;SDS011;48626;51.678;5.806;2022-11-20T09:26:11;32.50;;;17.05;;
62572;SDS011;48626;51.678;5.806;2022-11-20T09:28:38;29.20;;;16.80;;
62572;SDS011;48626;51.678;5.806;2022-11-20T09:31:07;30.48;;;16.48;;
62572;SDS011;48626;51.678;5.806;2022-11-20T09:33:33;29.38;;;16.42;;
62572;SDS011;48626;51.678;5.806;2022-11-20T09:36:00;28.27;;;16.67;;
62572;SDS011;48626;51.678;5.806;2022-11-20T09:38:26;30.58;;;16.10;;
62572;SDS011;48626;51.678;5.806;2022-11-20T09:40:55;32.92;;;16.65;;
62572;SDS011;48626;51.678;5.806;2022-11-20T09:43:28;32.97;;;17.27;;
62572;SDS011;48626;51.678;5.806;2022-11-20T09:49:14;30.52;;;16.42;;
62572;SDS011;48626;51.678;5.806;2022-11-20T09:52:21;28.73;;;15.95;;
62572;SDS011;48626;51.678;5.806;2022-11-20T09:54:57;32.75;;;16.02;;
62572;SDS011;48626;51.678;5.806;2022-11-20T09:57:31;32.90;;;17.65;;
62572;SDS011;48626;51.678;5.806;2022-11-20T10:00:03;38.20;;;18.02;;
62572;SDS011;48626;51.678;5.806;2022-11-20T10:02:35;34.50;;;18.10;;
62572;SDS011;48626;51.678;5.806;2022-11-20T10:10:45;34.90;;;17.00;;
62572;SDS011;48626;51.678;5.806;2022-11-20T10:13:17;40.75;;;19.05;;
62572;SDS011;48626;51.678;5.806;2022-11-20T10:18:54;33.72;;;17.55;;
62572;SDS011;48626;51.678;5.806;2022-11-20T10:29:34;37.55;;;20.23;;
62572;SDS011;48626;51.678;5.806;2022-11-20T10:32:10;38.95;;;20.90;;
62572;SDS011;48626;51.678;5.806;2022-11-20T10:34:45;39.75;;;20.42;;
62572;SDS011;48626;51.678;5.806;2022-11-20T10:37:25;30.73;;;17.38;;
62572;SDS011;48626;51.678;5.806;2022-11-20T10:40:01;35.08;;;18.45;;
62572;SDS011;48626;51.678;5.806;2022-11-20T10:42:52;31.38;;;18.00;;
62572;SDS011;48626;51.678;5.806;2022-11-20T10:50:38;39.67;;;20.85;;
62572;SDS011;48626;51.678;5.806;2022-11-20T10:53:18;33.58;;;18.48;;
62572;SDS011;48626;51.678;5.806;2022-11-20T10:56:15;36.05;;;18.88;;
62572;SDS011;48626;51.678;5.806;2022-11-20T10:58:58;37.38;;;17.80;;
62572;SDS011;48626;51.678;5.806;2022-11-20T11:01:26;32.30;;;18.58;;
62572;SDS011;48626;51.678;5.806;2022-11-20T11:03:52;31.95;;;18.80;;
62572;SDS011;48626;51.678;5.806;2022-11-20T11:08:59;32.42;;;18.50;;
62572;SDS011;48626;51.678;5.806;2022-11-20T11:11:30;38.10;;;19.33;;
62572;SDS011;48626;51.678;5.806;2022-11-20T11:14:08;35.70;;;19.15;;
62572;SDS011;48626;51.678;5.806;2022-11-20T11:16:53;37.70;;;20.15;;
62572;SDS011;48626;51.678;5.806;2022-11-20T11:19:20;43.33;;;20.50;;
62572;SDS011;48626;51.678;5.806;2022-11-20T11:21:46;38.13;;;20.80;;
62572;SDS011;48626;51.678;5.806;2022-11-20T11:24:24;37.70;;;19.83;;
62572;SDS011;48626;51.678;5.806;2022-11-20T11:26:58;33.05;;;18.52;;
62572;SDS011;48626;51.678;5.806;2022-11-20T11:29:29;43.42;;;22.13;;
62572;SDS011;48626;51.678;5.806;2022-11-20T11:32:06;37.97;;;19.00;;
62572;SDS011;48626;51.678;5.806;2022-11-20T11:34:36;42.28;;;21.58;;
62572;SDS011;48626;51.678;5.806;2022-11-20T11:37:02;43.10;;;20.85;;
62572;SDS011;48626;51.678;5.806;2022-11-20T11:39:29;40.80;;;21.75;;
62572;SDS011;48626;51.678;5.806;2022-11-20T11:41:58;37.17;;;20.38;;
62572;SDS011;48626;51.678;5.806;2022-11-20T11:44:30;43.78;;;21.48;;
62572;SDS011;48626;51.678;5.806;2022-11-20T11:47:26;52.83;;;22.45;;
62572;SDS011;48626;51.678;5.806;2022-11-20T11:52:56;54.55;;;25.25;;
62572;SDS011;48626;51.678;5.806;2022-11-20T12:01:31;42.92;;;21.10;;
62572;SDS011;48626;51.678;5.806;2022-11-20T12:05:03;43.78;;;21.83;;
62572;SDS011;48626;51.678;5.806;2022-11-20T12:10:13;45.35;;;22.10;;
62572;SDS011;48626;51.678;5.806;2022-11-20T12:12:47;47.28;;;22.13;;
62572;SDS011;48626;51.678;5.806;2022-11-20T12:15:23;44.65;;;22.10;;
62572;SDS011;48626;51.678;5.806;2022-11-20T12:17:53;45.97;;;21.42;;
62572;SDS011;48626;51.678;5.806;2022-11-20T12:20:19;45.40;;;22.20;;
62572;SDS011;48626;51.678;5.806;2022-11-20T12:22:50;45.50;;;22.02;;
62572;SDS011;48626;51.678;5.806;2022-11-20T12:25:27;41.78;;;20.85;;
62572;SDS011;48626;51.678;5.806;2022-11-20T12:30:42;47.63;;;21.38;;
62572;SDS011;48626;51.678;5.806;2022-11-20T12:33:48;41.95;;;20.60;;
62572;SDS011;48626;51.678;5.806;2022-11-20T12:45:35;44.80;;;20.02;;
62572;SDS011;48626;51.678;5.806;2022-11-20T12:48:19;41.50;;;19.50;;
62572;SDS011;48626;51.678;5.806;2022-11-20T12:51:11;48.85;;;20.17;;
62572;SDS011;48626;51.678;5.806;2022-11-20T13:07:38;57.60;;;23.08;;
62572;SDS011;48626;51.678;5.806;2022-11-20T13:10:06;62.72;;;22.92;;
62572;SDS011;48626;51.678;5.806;2022-11-20T13:12:53;62.10;;;21.58;;
62572;SDS011;48626;51.678;5.806;2022-11-20T13:18:11;58.72;;;21.38;;
62572;SDS011;48626;51.678;5.806;2022-11-20T13:20:41;62.33;;;21.90;;
62572;SDS011;48626;51.678;5.806;2022-11-20T13:23:08;64.00;;;23.70;;
62572;SDS011;48626;51.678;5.806;2022-11-20T13:25:34;52.38;;;22.40;;
62572;SDS011;48626;51.678;5.806;2022-11-20T13:30:36;57.85;;;21.73;;
62572;SDS011;48626;51.678;5.806;2022-11-20T13:33:32;58.10;;;21.80;;
62572;SDS011;48626;51.678;5.806;2022-11-20T13:36:01;55.05;;;22.08;;
62572;SDS011;48626;51.678;5.806;2022-11-20T13:38:39;54.78;;;21.90;;
62572;SDS011;48626;51.678;5.806;2022-11-20T13:41:11;55.03;;;21.40;;
62572;SDS011;48626;51.678;5.806;2022-11-20T13:43:54;60.20;;;20.63;;
62572;SDS011;48626;51.678;5.806;2022-11-20T13:46:34;55.53;;;20.75;;
62572;SDS011;48626;51.678;5.806;2022-11-20T13:49:05;57.28;;;22.05;;
62572;SDS011;48626;51.678;5.806;2022-11-20T13:51:40;55.00;;;22.42;;
62572;SDS011;48626;51.678;5.806;2022-11-20T13:56:56;61.38;;;22.60;;
62572;SDS011;48626;51.678;5.806;2022-11-20T14:02:21;64.20;;;22.73;;
62572;SDS011;48626;51.678;5.806;2022-11-20T14:04:51;64.95;;;23.63;;
62572;SDS011;48626;51.678;5.806;2022-11-20T14:07:19;64.50;;;22.35;;
62572;SDS011;48626;51.678;5.806;2022-11-20T14:09:54;62.17;;;22.73;;
62572;SDS011;48626;51.678;5.806;2022-11-20T14:12:38;64.00;;;23.52;;
62572;SDS011;48626;51.678;5.806;2022-11-20T14:15:04;59.63;;;22.48;;
62572;SDS011;48626;51.678;5.806;2022-11-20T14:17:31;72.10;;;22.33;;
62572;SDS011;48626;51.678;5.806;2022-11-20T14:19:59;60.05;;;22.77;;
62572;SDS011;48626;51.678;5.806;2022-11-20T14:22:28;65.93;;;22.65;;
62572;SDS011;48626;51.678;5.806;2022-11-20T14:25:06;61.72;;;21.35;;
62572;SDS011;48626;51.678;5.806;2022-11-20T14:27:42;72.03;;;22.27;;
62572;SDS011;48626;51.678;5.806;2022-11-20T14:30:14;57.03;;;22.17;;
62572;SDS011;48626;51.678;5.806;2022-11-20T14:32:42;60.72;;;22.25;;
62572;SDS011;48626;51.678;5.806;2022-11-20T14:35:09;55.25;;;21.13;;
62572;SDS011;48626;51.678;5.806;2022-11-20T14:37:39;55.97;;;20.63;;
62572;SDS011;48626;51.678;5.806;2022-11-20T14:42:50;55.28;;;20.63;;
62572;SDS011;48626;51.678;5.806;2022-11-20T14:45:16;51.60;;;20.35;;
62572;SDS011;48626;51.678;5.806;2022-11-20T14:47:42;52.88;;;20.02;;
62572;SDS011;48626;51.678;5.806;2022-11-20T14:50:19;53.90;;;21.15;;
62572;SDS011;48626;51.678;5.806;2022-11-20T14:52:54;52.15;;;20.58;;
62572;SDS011;48626;51.678;5.806;2022-11-20T14:58:06;50.58;;;20.38;;
62572;SDS011;48626;51.678;5.806;2022-11-20T15:00:53;55.08;;;21.55;;
62572;SDS011;48626;51.678;5.806;2022-11-20T15:03:23;55.80;;;20.60;;
62572;SDS011;48626;51.678;5.806;2022-11-20T15:05:55;51.10;;;19.75;;
62572;SDS011;48626;51.678;5.806;2022-11-20T15:08:21;56.22;;;21.00;;
62572;SDS011;48626;51.678;5.806;2022-11-20T15:10:47;52.55;;;20.13;;
62572;SDS011;48626;51.678;5.806;2022-11-20T15:13:22;52.85;;;21.10;;
62572;SDS011;48626;51.678;5.806;2022-11-20T15:15:58;53.13;;;20.60;;
62572;SDS011;48626;51.678;5.806;2022-11-20T15:18:32;51.08;;;20.45;;
62572;SDS011;48626;51.678;5.806;2022-11-20T15:21:03;55.25;;;21.35;;
62572;SDS011;48626;51.678;5.806;2022-11-20T15:23:35;50.00;;;19.63;;
62572;SDS011;48626;51.678;5.806;2022-11-20T15:26:00;50.63;;;22.48;;
62572;SDS011;48626;51.678;5.806;2022-11-20T15:31:02;54.10;;;19.95;;
62572;SDS011;48626;51.678;5.806;2022-11-20T15:33:29;45.70;;;18.95;;
62572;SDS011;48626;51.678;5.806;2022-11-20T15:35:55;44.05;;;19.77;;
62572;SDS011;48626;51.678;5.806;2022-11-20T15:38:21;43.88;;;18.70;;
62572;SDS011;48626;51.678;5.806;2022-11-20T15:40:47;47.45;;;19.25;;
62572;SDS011;48626;51.678;5.806;2022-11-20T15:43:13;42.70;;;17.77;;
62572;SDS011;48626;51.678;5.806;2022-11-20T15:48:16;45.28;;;18.42;;
62572;SDS011;48626;51.678;5.806;2022-11-20T15:53:32;40.15;;;17.80;;
62572;SDS011;48626;51.678;5.806;2022-11-20T15:55:57;44.00;;;17.67;;
62572;SDS011;48626;51.678;5.806;2022-11-20T15:58:23;38.72;;;17.60;;
62572;SDS011;48626;51.678;5.806;2022-11-20T16:00:49;38.75;;;16.42;;
62572;SDS011;48626;51.678;5.806;2022-11-20T16:03:15;38.90;;;17.67;;
62572;SDS011;48626;51.678;5.806;2022-11-20T16:05:42;36.88;;;16.95;;
62572;SDS011;48626;51.678;5.806;2022-11-20T16:08:08;41.20;;;18.60;;
62572;SDS011;48626;51.678;5.806;2022-11-20T16:10:34;38.75;;;17.45;;
62572;SDS011;48626;51.678;5.806;2022-11-20T16:13:00;40.97;;;17.92;;